ilmateenistus.ee keskkonnaagentuur.ee
EETN Tallinna lennuväli
FTEO31 EETN 261700
TAF EETN 261717Z 2618/2718 VRB02KT 9999 SCT010 SCT020CB PROB40 TEMPO
    2618/2620 TS TEMPO 2620/2623 BKN004 TEMPO 2623/2705 0700 BCFG BKN002
    PROB40 TEMPO 2706/2709 BKN006 BECMG 2709/2711 28010KT=

METAR EETN 262120Z 00000KT 9999 FEW040 19/17 Q1015 NOSIG=
Tallinna lennuväli
EEKA Kärdla lennuväli
METAR EEKA 262050Z NIL=
Kärdla lennuväli
EEKE Kuressaare lennuväli
METAR EEKE 262050Z AUTO 25004KT 220V290 6000NDV NCD 19/19 Q1016=
Kuressaare lennuväli
EEPU Pärnu lennuväli
METAR EEPU 262050Z NIL=
Pärnu lennuväli
EETU Tartu lennuväli
METAR EETU 262120Z AUTO 24002KT 5000 NCD 19/16 Q1015=
Tartu lennuväli